createdAt,value
2022-10-06T00:02:23.985Z,88.97
2022-10-06T00:04:51.468Z,88.65
2022-10-06T00:07:18.932Z,89.26
2022-10-06T00:09:46.716Z,88.95
2022-10-06T00:12:14.202Z,89.14
2022-10-06T00:14:43.163Z,89.04
2022-10-06T00:17:10.696Z,88.93
2022-10-06T00:19:38.199Z,88.71
2022-10-06T00:22:05.751Z,89.23
2022-10-06T00:24:33.311Z,89.19
2022-10-06T00:27:00.843Z,89.19
2022-10-06T00:29:28.339Z,89.25
2022-10-06T00:31:57.182Z,89.33
2022-10-06T00:34:25.370Z,90.20
2022-10-06T00:36:52.999Z,90.24
2022-10-06T00:39:21.114Z,90.70
2022-10-06T00:41:48.795Z,90.76
2022-10-06T00:44:16.326Z,91.11
2022-10-06T00:46:46.290Z,91.24
2022-10-06T00:49:18.476Z,91.34
2022-10-06T00:51:48.741Z,91.67
2022-10-06T00:54:17.592Z,92.24
2022-10-06T00:56:45.453Z,92.07
2022-10-06T00:59:13.835Z,92.30
2022-10-06T01:01:43.465Z,92.25
2022-10-06T01:04:13.141Z,92.53
2022-10-06T01:06:46.452Z,92.88
2022-10-06T01:09:16.238Z,93.36
2022-10-06T01:11:44.053Z,93.72
2022-10-06T01:14:11.716Z,93.90
2022-10-06T01:16:40.845Z,93.80
2022-10-06T01:19:12.035Z,94.23
2022-10-06T01:21:42.329Z,94.01
2022-10-06T01:24:11.299Z,94.46
2022-10-06T01:26:41.094Z,94.46
2022-10-06T01:29:08.656Z,94.50
2022-10-06T01:31:36.303Z,94.78
2022-10-06T01:34:03.871Z,94.48
2022-10-06T01:36:31.392Z,94.14
2022-10-06T01:38:58.931Z,93.37
2022-10-06T01:41:28.148Z,93.13
2022-10-06T01:43:55.695Z,92.86
2022-10-06T01:46:23.384Z,92.19
2022-10-06T01:48:51.082Z,91.79
2022-10-06T01:51:18.876Z,91.67
2022-10-06T01:53:46.414Z,91.44
2022-10-06T01:56:14.029Z,91.62
2022-10-06T01:58:43.032Z,91.61
2022-10-06T02:01:11.032Z,91.60
2022-10-06T02:03:39.486Z,91.55
2022-10-06T02:06:07.972Z,91.75
2022-10-06T02:08:36.269Z,91.64
2022-10-06T02:11:05.695Z,91.77
2022-10-06T02:13:33.412Z,91.92
2022-10-06T02:16:02.309Z,92.09
2022-10-06T02:18:30.109Z,92.61
2022-10-06T02:20:57.957Z,92.53
2022-10-06T02:23:25.453Z,92.35
2022-10-06T02:25:58.773Z,93.00
2022-10-06T02:28:26.752Z,92.99
2022-10-06T02:30:54.652Z,93.89
2022-10-06T02:33:23.546Z,93.61
2022-10-06T02:35:55.088Z,93.78
2022-10-06T02:38:22.905Z,94.47
2022-10-06T02:40:50.511Z,94.60
2022-10-06T02:43:18.208Z,94.79
2022-10-06T02:45:53.335Z,94.70
2022-10-06T02:48:20.987Z,94.55
2022-10-06T02:50:55.009Z,94.49
2022-10-06T02:53:22.559Z,94.73
2022-10-06T02:55:50.112Z,93.96
2022-10-06T02:58:17.599Z,92.82
2022-10-06T03:00:45.106Z,93.46
2022-10-06T03:03:12.611Z,93.28
2022-10-06T03:05:40.142Z,92.14
2022-10-06T03:08:11.412Z,91.17
2022-10-06T03:10:38.950Z,90.73
2022-10-06T03:13:07.470Z,90.15
2022-10-06T03:15:34.984Z,89.50
2022-10-06T03:18:02.467Z,89.07
2022-10-06T03:20:29.987Z,87.43
2022-10-06T03:22:57.621Z,86.12
2022-10-06T03:25:26.563Z,84.54
2022-10-06T03:27:54.079Z,84.51
2022-10-06T03:30:21.587Z,84.14
2022-10-06T03:32:49.682Z,83.48
2022-10-06T03:35:17.270Z,83.92
2022-10-06T03:37:44.747Z,82.46
2022-10-06T03:40:12.442Z,81.35
2022-10-06T03:42:41.311Z,80.40
2022-10-06T03:45:09.394Z,80.75
2022-10-06T03:47:36.975Z,80.94
2022-10-06T03:50:04.571Z,79.89
2022-10-06T03:52:32.094Z,79.91
2022-10-06T03:54:59.585Z,79.21
2022-10-06T03:57:27.226Z,77.98
2022-10-06T03:59:59.220Z,78.05
2022-10-06T04:02:26.807Z,78.48
2022-10-06T04:04:55.825Z,77.94
2022-10-06T04:07:23.335Z,77.62
2022-10-06T04:09:50.813Z,77.62
2022-10-06T04:12:18.334Z,76.90
2022-10-06T04:14:45.807Z,76.66
2022-10-06T04:17:15.223Z,76.97
2022-10-06T04:19:42.774Z,76.96
2022-10-06T04:22:10.290Z,77.60
2022-10-06T04:24:37.813Z,78.27
2022-10-06T04:27:22.795Z,78.94
2022-10-06T04:29:50.306Z,78.36
2022-10-06T04:32:19.152Z,78.96
2022-10-06T04:34:46.661Z,78.56
2022-10-06T04:37:14.181Z,78.63
2022-10-06T04:39:41.825Z,78.24
2022-10-06T04:42:09.334Z,77.69
2022-10-06T04:44:36.905Z,77.40
2022-10-06T04:47:04.526Z,76.98
2022-10-06T04:49:33.401Z,76.46
2022-10-06T04:52:00.967Z,76.89
2022-10-06T04:54:32.822Z,76.66
2022-10-06T04:57:01.218Z,77.00
2022-10-06T04:59:42.608Z,76.93
2022-10-06T05:02:10.225Z,76.28
2022-10-06T05:04:39.617Z,75.86
2022-10-06T05:07:07.225Z,76.36
2022-10-06T05:09:34.742Z,76.04
2022-10-06T05:12:02.330Z,76.05
2022-10-06T05:14:29.857Z,76.20
2022-10-06T05:16:57.344Z,77.01
2022-10-06T05:19:24.873Z,76.57
2022-10-06T05:21:53.743Z,76.32
2022-10-06T05:24:21.246Z,76.89
2022-10-06T05:26:50.132Z,75.89
2022-10-06T05:29:17.676Z,75.99
2022-10-06T05:31:45.415Z,76.80
2022-10-06T05:34:13.081Z,77.13
2022-10-06T05:36:40.611Z,76.45
2022-10-06T05:39:10.186Z,77.20
2022-10-06T05:41:38.163Z,76.55
2022-10-06T05:44:05.866Z,77.30
2022-10-06T05:46:33.988Z,77.18
2022-10-06T05:49:03.189Z,77.09
2022-10-06T05:51:31.932Z,77.73
2022-10-06T05:53:59.586Z,77.67
2022-10-06T05:56:28.968Z,77.13
2022-10-06T05:58:57.315Z,78.24
2022-10-06T06:01:25.814Z,78.77
2022-10-06T06:03:54.414Z,78.01
2022-10-06T06:06:23.645Z,78.21
2022-10-06T06:08:53.138Z,77.45
2022-10-06T06:11:26.166Z,77.79
2022-10-06T06:13:56.995Z,77.87
2022-10-06T06:16:23.920Z,77.29
2022-10-06T06:18:51.913Z,77.64
2022-10-06T06:21:19.659Z,77.30
2022-10-06T06:23:47.965Z,77.39
2022-10-06T06:26:17.170Z,76.90
2022-10-06T06:28:46.376Z,77.46
2022-10-06T06:31:20.104Z,77.71
2022-10-06T06:33:48.697Z,78.88
2022-10-06T06:36:17.321Z,78.78
2022-10-06T06:38:47.326Z,78.53
2022-10-06T06:41:15.717Z,79.70
2022-10-06T06:43:43.727Z,79.40
2022-10-06T06:46:11.487Z,79.96
2022-10-06T06:48:40.624Z,79.65
2022-10-06T06:51:08.439Z,78.43
2022-10-06T06:53:36.086Z,78.25
2022-10-06T06:56:04.117Z,78.06
2022-10-06T06:58:32.804Z,78.30
2022-10-06T07:01:07.826Z,78.97
2022-10-06T07:06:28.108Z,79.38
2022-10-06T07:08:56.696Z,79.97
2022-10-06T07:11:25.372Z,80.58
2022-10-06T07:13:54.024Z,81.78
2022-10-06T07:16:40.465Z,82.08
2022-10-06T07:19:26.049Z,82.79
2022-10-06T07:22:15.661Z,82.70
2022-10-06T07:25:00.749Z,82.78
2022-10-06T07:27:29.177Z,81.86
2022-10-06T07:29:57.408Z,81.68
2022-10-06T07:32:25.807Z,82.04
2022-10-06T07:34:53.929Z,81.69
2022-10-06T07:37:24.116Z,80.39
2022-10-06T07:39:51.680Z,77.65
2022-10-06T07:42:19.269Z,75.04
2022-10-06T07:45:07.657Z,72.48
2022-10-06T07:50:17.778Z,68.86
2022-10-06T07:52:48.487Z,66.98
2022-10-06T07:55:17.290Z,65.60
2022-10-06T07:57:46.196Z,65.95
2022-10-06T08:00:15.657Z,64.47
2022-10-06T08:02:43.640Z,63.40
2022-10-06T08:05:11.626Z,64.02
2022-10-06T08:07:41.613Z,64.64
2022-10-06T08:10:10.048Z,64.76
2022-10-06T08:12:40.163Z,65.44
2022-10-06T08:15:11.418Z,66.37
2022-10-06T08:17:39.610Z,67.04
2022-10-06T08:20:10.412Z,67.16
2022-10-06T08:22:39.993Z,64.88
2022-10-06T08:25:12.257Z,64.11
2022-10-06T08:27:44.238Z,62.12
2022-10-06T08:30:13.487Z,62.60
2022-10-06T08:32:42.913Z,62.95
2022-10-06T08:35:11.738Z,63.55
2022-10-06T08:37:39.524Z,64.26
2022-10-06T08:40:13.664Z,63.77
2022-10-06T08:42:43.814Z,63.55
2022-10-06T08:45:17.451Z,63.88
2022-10-06T08:47:56.066Z,63.03
2022-10-06T08:50:27.479Z,62.36
2022-10-06T08:53:04.358Z,61.66
2022-10-06T08:55:39.772Z,61.65
2022-10-06T08:58:35.010Z,59.87
2022-10-06T09:01:15.301Z,59.49
2022-10-06T09:03:48.328Z,58.21
2022-10-06T09:06:29.418Z,56.91
2022-10-06T09:09:04.503Z,54.89
2022-10-06T09:11:46.411Z,55.11
2022-10-06T09:14:21.226Z,55.47
2022-10-06T09:16:54.834Z,53.60
2022-10-06T09:19:31.432Z,52.06
2022-10-06T09:22:04.722Z,47.44
2022-10-06T09:24:37.130Z,48.63
2022-10-06T09:27:17.602Z,47.87
2022-10-06T09:29:48.410Z,47.13
2022-10-06T09:32:17.134Z,45.35
2022-10-06T09:34:50.210Z,45.88
2022-10-06T09:37:18.113Z,44.17
2022-10-06T09:39:49.339Z,44.50
2022-10-06T09:42:22.694Z,44.22
2022-10-06T09:44:58.529Z,43.04
2022-10-06T09:47:45.201Z,41.08
2022-10-06T09:50:24.755Z,41.10
2022-10-06T09:53:11.329Z,39.16
2022-10-06T09:55:46.227Z,38.92
2022-10-06T09:58:22.206Z,36.68
2022-10-06T10:00:55.289Z,36.17
2022-10-06T10:03:26.003Z,34.97
2022-10-06T10:05:56.001Z,34.59
2022-10-06T10:08:26.386Z,32.68
2022-10-06T10:11:27.630Z,33.16
2022-10-06T10:13:57.728Z,32.14
2022-10-06T10:16:26.895Z,32.80
2022-10-06T10:18:55.184Z,32.48
2022-10-06T10:21:26.868Z,31.74
2022-10-06T10:23:57.148Z,32.09
2022-10-06T10:26:35.587Z,32.20
2022-10-06T10:29:32.956Z,32.54
2022-10-06T10:32:09.802Z,33.52
2022-10-06T10:35:01.110Z,34.61
2022-10-06T10:37:36.776Z,34.46
2022-10-06T10:40:13.824Z,35.10
2022-10-06T10:42:48.531Z,35.96
2022-10-06T10:45:22.861Z,35.67
2022-10-06T10:47:50.926Z,35.60
2022-10-06T10:50:25.621Z,36.09
2022-10-06T10:52:59.263Z,36.76
2022-10-06T10:55:30.749Z,37.35
2022-10-06T10:58:05.050Z,38.10
2022-10-06T11:00:39.570Z,37.48
2022-10-06T11:03:07.467Z,37.83
2022-10-06T11:05:56.223Z,36.65
2022-10-06T11:08:34.166Z,36.31
2022-10-06T11:11:05.632Z,37.43
2022-10-06T11:13:39.615Z,38.40
2022-10-06T11:16:20.660Z,39.40
2022-10-06T11:19:02.808Z,37.96
2022-10-06T11:21:37.205Z,38.86
2022-10-06T11:24:15.620Z,39.85
2022-10-06T11:27:21.552Z,39.48
2022-10-06T11:30:02.387Z,40.43
2022-10-06T11:32:46.408Z,40.04
2022-10-06T11:35:20.544Z,40.90
2022-10-06T11:37:54.869Z,40.93
2022-10-06T11:40:38.408Z,41.95
2022-10-06T11:43:17.079Z,41.83
2022-10-06T11:45:51.044Z,41.39
2022-10-06T11:48:27.059Z,41.44
2022-10-06T11:50:56.918Z,41.06
2022-10-06T11:53:40.976Z,40.42
2022-10-06T11:56:45.133Z,40.68
2022-10-06T11:59:28.409Z,40.62
2022-10-06T12:01:57.948Z,40.93
2022-10-06T12:04:27.691Z,40.66
2022-10-06T12:06:59.842Z,40.58
2022-10-06T12:09:52.052Z,41.53
2022-10-06T12:13:01.777Z,40.04
2022-10-06T12:19:08.707Z,40.40
2022-10-06T12:21:48.721Z,40.28
2022-10-06T12:24:26.371Z,38.55
2022-10-06T12:27:09.064Z,38.34
2022-10-06T12:29:46.103Z,39.31
2022-10-06T12:32:34.981Z,39.30
2022-10-06T12:35:11.237Z,38.79
2022-10-06T12:37:53.110Z,37.79
2022-10-06T12:40:48.349Z,37.67
2022-10-06T12:43:57.100Z,38.43
2022-10-06T12:46:44.222Z,38.65
2022-10-06T12:49:35.385Z,39.36
2022-10-06T12:52:10.286Z,37.92
2022-10-06T12:54:48.121Z,38.34
2022-10-06T12:57:19.965Z,37.70
2022-10-06T12:59:49.470Z,37.33
2022-10-06T13:02:21.531Z,37.94
2022-10-06T13:04:53.930Z,38.71
2022-10-06T13:07:22.367Z,38.48
2022-10-06T13:09:53.399Z,37.69
2022-10-06T13:12:29.960Z,37.72
2022-10-06T13:15:18.459Z,37.89
2022-10-06T13:17:51.068Z,38.63
2022-10-06T13:20:22.359Z,36.99
2022-10-06T13:23:00.413Z,37.36
2022-10-06T13:25:42.190Z,37.19
2022-10-06T13:28:22.106Z,36.29
2022-10-06T13:30:55.258Z,36.52
2022-10-06T13:33:24.054Z,37.05
2022-10-06T13:35:54.455Z,36.15
2022-10-06T13:38:22.767Z,35.67
2022-10-06T13:41:17.391Z,35.46
2022-10-06T13:43:48.434Z,36.77
2022-10-06T13:46:18.551Z,34.90
2022-10-06T13:48:50.603Z,35.72
2022-10-06T13:51:20.746Z,36.13
2022-10-06T13:53:49.293Z,36.76
2022-10-06T13:56:37.174Z,36.70
2022-10-06T13:59:31.070Z,35.69
2022-10-06T14:02:02.065Z,35.77
2022-10-06T14:04:31.766Z,35.25
2022-10-06T14:07:03.031Z,35.56
2022-10-06T14:09:33.522Z,35.30
2022-10-06T14:12:08.654Z,37.75
2022-10-06T14:14:36.677Z,36.02
2022-10-06T14:17:05.064Z,36.30
2022-10-06T14:19:36.073Z,36.35
2022-10-06T14:22:05.558Z,35.75
2022-10-06T14:24:37.281Z,36.36
2022-10-06T14:27:07.976Z,36.22
2022-10-06T14:29:37.926Z,37.45
2022-10-06T14:32:13.691Z,35.89
2022-10-06T14:34:42.572Z,36.00
2022-10-06T14:37:15.329Z,36.51
2022-10-06T14:39:43.720Z,35.99
2022-10-06T14:42:14.465Z,35.89
2022-10-06T14:44:43.151Z,37.10
2022-10-06T14:47:11.175Z,37.76
2022-10-06T14:49:38.999Z,38.64
2022-10-06T14:52:09.087Z,38.75
2022-10-06T14:54:37.243Z,38.99
2022-10-06T14:57:05.182Z,38.47
2022-10-06T14:59:34.482Z,40.84
2022-10-06T15:02:03.084Z,40.13
2022-10-06T15:04:31.355Z,39.03
2022-10-06T15:07:16.780Z,38.16
2022-10-06T15:09:44.623Z,38.81
2022-10-06T15:12:12.403Z,37.86
2022-10-06T15:14:41.511Z,37.60
2022-10-06T15:17:09.284Z,37.25
2022-10-06T15:19:37.743Z,38.08
2022-10-06T15:22:06.334Z,37.37
2022-10-06T15:24:34.097Z,37.41
2022-10-06T15:27:24.523Z,37.38
2022-10-06T15:29:54.106Z,37.86
2022-10-06T15:32:22.571Z,37.56
2022-10-06T15:34:52.203Z,38.11
2022-10-06T15:37:20.227Z,37.39
2022-10-06T15:39:48.100Z,37.56
2022-10-06T15:42:18.751Z,38.70
2022-10-06T15:44:46.493Z,38.36
2022-10-06T15:47:15.614Z,38.04
2022-10-06T15:49:43.381Z,38.24
2022-10-06T15:52:13.323Z,39.31
2022-10-06T15:54:42.007Z,38.47
2022-10-06T15:57:16.422Z,37.94
2022-10-06T15:59:47.437Z,39.08
2022-10-06T16:02:18.119Z,38.72
2022-10-06T16:05:10.417Z,38.49
2022-10-06T16:07:38.082Z,39.39
2022-10-06T16:10:06.947Z,40.20
2022-10-06T16:12:34.850Z,40.95
2022-10-06T16:15:02.551Z,41.63
2022-10-06T16:17:31.608Z,41.51
2022-10-06T16:19:59.517Z,42.58
2022-10-06T16:22:27.234Z,42.79
2022-10-06T16:24:54.993Z,43.82
2022-10-06T16:27:22.766Z,45.35
2022-10-06T16:29:50.596Z,45.22
2022-10-06T16:32:18.558Z,44.85
2022-10-06T16:34:50.466Z,45.15
2022-10-06T16:37:18.239Z,46.00
2022-10-06T16:39:46.047Z,46.67
2022-10-06T16:42:13.844Z,45.08
2022-10-06T16:44:41.621Z,45.55
2022-10-06T16:47:09.817Z,44.98
2022-10-06T16:49:37.703Z,46.99
2022-10-06T16:52:06.808Z,47.98
2022-10-06T16:54:34.589Z,48.47
2022-10-06T16:57:06.702Z,47.56
2022-10-06T16:59:34.459Z,48.00
2022-10-06T17:02:02.303Z,47.33
2022-10-06T17:04:30.229Z,48.51
2022-10-06T17:06:58.679Z,48.47
2022-10-06T17:09:29.718Z,48.37
2022-10-06T17:11:59.423Z,49.89
2022-10-06T17:14:27.859Z,51.16
2022-10-06T17:16:56.918Z,51.77
2022-10-06T17:19:26.460Z,52.55
2022-10-06T17:21:59.006Z,52.95
2022-10-06T17:24:31.208Z,54.08
2022-10-06T17:26:59.261Z,55.51
2022-10-06T17:29:27.575Z,56.46
2022-10-06T17:31:59.968Z,56.57
2022-10-06T17:34:32.302Z,56.15
2022-10-06T17:37:00.894Z,56.98
2022-10-06T17:39:30.203Z,57.50
2022-10-06T17:41:57.974Z,58.03
2022-10-06T17:44:28.494Z,59.54
2022-10-06T17:46:58.346Z,60.84
2022-10-06T17:49:27.038Z,63.53
2022-10-06T17:51:56.185Z,64.51
2022-10-06T17:54:25.095Z,66.07
2022-10-06T17:56:56.037Z,66.99
2022-10-06T17:59:28.559Z,67.06
2022-10-06T18:01:57.949Z,66.49
2022-10-06T18:04:27.183Z,65.92
2022-10-06T18:06:55.646Z,66.24
2022-10-06T18:09:24.175Z,66.94
2022-10-06T18:11:55.939Z,67.11
2022-10-06T18:14:26.894Z,67.58
2022-10-06T18:16:57.462Z,67.88
2022-10-06T18:19:26.808Z,68.54
2022-10-06T18:21:56.543Z,68.52
2022-10-06T18:24:27.327Z,68.99
2022-10-06T18:26:57.260Z,68.42
2022-10-06T18:29:30.561Z,67.90
2022-10-06T18:32:15.034Z,68.08
2022-10-06T18:36:12.078Z,67.99
2022-10-06T18:37:34.865Z,67.88
2022-10-06T18:40:05.871Z,67.97
2022-10-06T18:42:33.716Z,68.06
2022-10-06T18:45:20.744Z,69.11
2022-10-06T18:48:06.288Z,69.23
2022-10-06T18:50:35.184Z,69.17
2022-10-06T18:53:04.559Z,70.54
2022-10-06T18:55:32.870Z,70.79
2022-10-06T18:58:00.646Z,71.17
2022-10-06T19:00:29.792Z,72.45
2022-10-06T19:02:57.693Z,72.58
2022-10-06T19:05:25.552Z,72.52
2022-10-06T19:07:54.767Z,72.67
2022-10-06T19:10:22.833Z,72.51
2022-10-06T19:12:50.714Z,73.34
2022-10-06T19:15:21.128Z,72.85
2022-10-06T19:17:50.875Z,73.54
2022-10-06T19:20:19.122Z,74.03
2022-10-06T19:22:47.713Z,73.97
2022-10-06T19:25:18.678Z,74.66
2022-10-06T19:27:47.083Z,74.86
2022-10-06T19:30:15.476Z,74.37
2022-10-06T19:32:43.257Z,74.58
2022-10-06T19:35:12.559Z,74.27
2022-10-06T19:37:40.845Z,73.94
2022-10-06T19:40:11.363Z,73.89
2022-10-06T19:42:47.780Z,74.04
2022-10-06T19:45:16.852Z,74.12
2022-10-06T19:47:46.706Z,74.68
2022-10-06T19:50:17.809Z,74.90
2022-10-06T19:52:46.434Z,74.77
2022-10-06T19:55:14.300Z,75.18
2022-10-06T19:57:43.037Z,75.12
2022-10-06T20:00:12.472Z,75.45
2022-10-06T20:02:42.955Z,76.28
2022-10-06T20:05:11.492Z,76.29
2022-10-06T20:07:41.032Z,75.74
2022-10-06T20:10:09.712Z,75.84
2022-10-06T20:12:38.402Z,76.42
2022-10-06T20:15:07.435Z,76.76
2022-10-06T20:17:36.057Z,77.80
2022-10-06T20:20:04.365Z,78.44
2022-10-06T20:22:32.659Z,78.67
2022-10-06T20:25:02.588Z,78.17
2022-10-06T20:27:30.422Z,77.78
2022-10-06T20:29:58.355Z,77.16
2022-10-06T20:32:26.130Z,77.73
2022-10-06T20:34:53.938Z,78.32
2022-10-06T20:37:21.740Z,79.18
2022-10-06T20:40:07.165Z,79.06
2022-10-06T20:42:36.371Z,79.33
2022-10-06T20:45:04.613Z,80.77
2022-10-06T20:47:32.931Z,80.97
2022-10-06T20:50:00.730Z,80.77
2022-10-06T20:52:29.380Z,80.85
2022-10-06T20:54:57.191Z,81.36
2022-10-06T20:57:28.119Z,81.05
2022-10-06T20:59:59.738Z,81.35
2022-10-06T21:02:27.497Z,81.61
2022-10-06T21:04:57.354Z,82.45
2022-10-06T21:07:25.265Z,82.69
2022-10-06T21:09:53.048Z,82.11
2022-10-06T21:12:21.099Z,82.13
2022-10-06T21:14:48.911Z,82.28
2022-10-06T21:17:18.886Z,81.89
2022-10-06T21:19:46.653Z,81.67
2022-10-06T21:22:14.417Z,81.61
2022-10-06T21:24:42.189Z,82.35
2022-10-06T21:27:09.906Z,82.98
2022-10-06T21:29:37.704Z,82.00
2022-10-06T21:32:05.525Z,82.35
2022-10-06T21:34:34.647Z,82.85
2022-10-06T21:37:02.554Z,82.28
2022-10-06T21:39:30.295Z,83.33
2022-10-06T21:41:58.057Z,83.64
2022-10-06T21:44:25.833Z,83.65
2022-10-06T21:46:55.213Z,83.28
2022-10-06T21:49:24.674Z,84.15
2022-10-06T21:51:55.728Z,84.69
2022-10-06T21:54:24.290Z,85.19
2022-10-06T21:56:52.659Z,85.31
2022-10-06T21:59:20.524Z,85.31
2022-10-06T22:01:50.239Z,85.65
2022-10-06T22:04:18.653Z,85.62
2022-10-06T22:06:49.890Z,85.23
2022-10-06T22:09:21.320Z,85.15
2022-10-06T22:11:49.362Z,84.95
2022-10-06T22:14:19.191Z,85.65
2022-10-06T22:16:47.321Z,85.56
2022-10-06T22:19:16.294Z,85.46
2022-10-06T22:21:46.101Z,85.05
2022-10-06T22:24:16.326Z,85.18
2022-10-06T22:26:45.764Z,84.95
2022-10-06T22:29:15.643Z,85.53
2022-10-06T22:31:45.927Z,85.66
2022-10-06T22:34:15.732Z,85.72
2022-10-06T22:36:43.609Z,85.32
2022-10-06T22:39:11.777Z,85.01
2022-10-06T22:41:39.946Z,85.03
2022-10-06T22:44:09.185Z,83.93
2022-10-06T22:46:37.895Z,83.46
2022-10-06T22:49:06.320Z,83.21
2022-10-06T22:51:34.559Z,82.85
2022-10-06T22:54:02.295Z,83.50
2022-10-06T22:56:31.952Z,84.28
2022-10-06T22:59:00.728Z,84.13
2022-10-06T23:01:30.722Z,84.27
2022-10-06T23:03:58.757Z,84.77
2022-10-06T23:06:26.988Z,84.81
2022-10-06T23:08:54.700Z,84.71
2022-10-06T23:11:23.603Z,85.03
2022-10-06T23:13:53.085Z,85.74
2022-10-06T23:16:21.865Z,86.77
2022-10-06T23:18:50.996Z,87.69
2022-10-06T23:21:22.701Z,88.32
2022-10-06T23:23:52.436Z,88.58
2022-10-06T23:26:21.451Z,88.39
2022-10-06T23:28:53.002Z,87.81
2022-10-06T23:31:20.942Z,87.80
2022-10-06T23:33:48.840Z,86.87
2022-10-06T23:36:18.793Z,85.91
2022-10-06T23:38:47.094Z,85.09
2022-10-06T23:41:15.202Z,84.75
2022-10-06T23:43:43.150Z,85.24
2022-10-06T23:46:11.054Z,85.88
2022-10-06T23:48:38.979Z,87.05
2022-10-06T23:51:09.291Z,87.68
2022-10-06T23:53:38.657Z,88.39
2022-10-06T23:56:07.118Z,88.27
2022-10-06T23:58:35.015Z,88.16
